createdAt,value
2018-08-14T00:00:14.752Z,17.25
2018-08-14T00:01:14.722Z,17.30
2018-08-14T00:02:14.709Z,17.28
2018-08-14T00:03:14.699Z,17.22
2018-08-14T00:04:14.690Z,17.23
2018-08-14T00:05:14.677Z,17.26
2018-08-14T00:06:14.677Z,17.23
2018-08-14T00:07:14.672Z,17.25
2018-08-14T00:08:14.646Z,17.25
2018-08-14T00:09:14.639Z,17.26
2018-08-14T00:10:14.624Z,17.23
2018-08-14T00:11:14.631Z,17.25
2018-08-14T00:12:14.602Z,17.21
2018-08-14T00:13:14.607Z,17.19
2018-08-14T00:14:14.595Z,17.25
2018-08-14T00:15:14.570Z,17.22
2018-08-14T00:16:14.560Z,17.31
2018-08-14T00:17:14.565Z,17.30
2018-08-14T00:18:14.541Z,17.31
2018-08-14T00:19:14.531Z,17.19
2018-08-14T00:20:14.518Z,17.21
2018-08-14T00:21:14.507Z,17.21
2018-08-14T00:22:14.543Z,17.25
2018-08-14T00:23:14.487Z,17.19
2018-08-14T00:24:14.474Z,17.30
2018-08-14T00:25:14.467Z,17.15
2018-08-14T00:26:14.455Z,17.19
2018-08-14T00:27:14.444Z,17.16
2018-08-14T00:28:14.449Z,17.14
2018-08-14T00:29:14.425Z,17.15
2018-08-14T00:30:14.412Z,17.04
2018-08-14T00:31:14.403Z,17.12
2018-08-14T00:32:14.405Z,17.07
2018-08-14T00:33:14.409Z,17.04
2018-08-14T00:34:14.369Z,17.08
2018-08-14T00:35:14.360Z,17.07
2018-08-14T00:36:14.348Z,17.08
2018-08-14T00:37:14.335Z,17.11
2018-08-14T00:38:14.328Z,17.11
2018-08-14T00:39:14.336Z,17.08
2018-08-14T00:40:14.305Z,17.11
2018-08-14T00:41:14.293Z,17.11
2018-08-14T00:42:14.285Z,17.11
2018-08-14T00:43:14.274Z,17.08
2018-08-14T00:44:14.268Z,17.11
2018-08-14T00:45:14.268Z,17.11
2018-08-14T00:46:14.240Z,17.07
2018-08-14T00:47:14.235Z,17.11
2018-08-14T00:48:14.224Z,17.11
2018-08-14T00:49:14.210Z,17.08
2018-08-14T00:50:14.215Z,17.12
2018-08-14T00:51:14.201Z,17.07
2018-08-14T00:52:14.178Z,17.11
2018-08-14T00:53:14.168Z,17.11
2018-08-14T00:54:14.155Z,17.12
2018-08-14T00:55:14.183Z,17.07
2018-08-14T00:56:14.133Z,17.11
2018-08-14T00:57:14.125Z,17.11
2018-08-14T00:58:14.111Z,17.14
2018-08-14T00:59:14.107Z,17.06
2018-08-14T01:00:14.093Z,17.12
2018-08-14T01:01:14.094Z,17.08
2018-08-14T01:02:14.069Z,17.08
2018-08-14T01:03:14.059Z,17.08
2018-08-14T01:04:14.052Z,17.08
2018-08-14T01:05:14.044Z,17.04
2018-08-14T01:06:14.053Z,17.14
2018-08-14T01:07:14.016Z,17.03
2018-08-14T01:08:14.007Z,17.07
2018-08-14T01:09:13.995Z,17.03
2018-08-14T01:10:13.986Z,17.08
2018-08-14T01:11:13.972Z,17.06
2018-08-14T01:12:13.982Z,17.11
2018-08-14T01:13:13.951Z,17.11
2018-08-14T01:14:13.944Z,17.08
2018-08-14T01:15:13.932Z,17.15
2018-08-14T01:16:13.924Z,17.04
2018-08-14T01:17:13.911Z,17.12
2018-08-14T01:18:13.914Z,17.18
2018-08-14T01:19:13.889Z,17.22
2018-08-14T01:20:13.878Z,17.22
2018-08-14T01:21:13.880Z,17.21
2018-08-14T01:22:13.858Z,17.12
2018-08-14T01:23:13.847Z,17.08
2018-08-14T01:24:13.849Z,17.08
2018-08-14T01:25:13.826Z,17.12
2018-08-14T01:26:13.820Z,17.08
2018-08-14T01:27:13.826Z,17.08
2018-08-14T01:28:13.790Z,17.06
2018-08-14T01:29:13.782Z,17.12
2018-08-14T01:30:13.769Z,17.12
2018-08-14T01:31:13.774Z,17.11
2018-08-14T01:32:13.749Z,17.08
2018-08-14T01:33:13.758Z,17.06
2018-08-14T01:34:13.726Z,17.15
2018-08-14T01:35:13.718Z,17.08
2018-08-14T01:36:13.708Z,17.14
2018-08-14T01:37:13.699Z,17.06
2018-08-14T01:38:13.684Z,17.12
2018-08-14T01:39:13.692Z,17.14
2018-08-14T01:40:13.663Z,17.14
2018-08-14T01:41:13.656Z,17.06
2018-08-14T01:42:13.644Z,17.08
2018-08-14T01:43:13.633Z,17.07
2018-08-14T01:44:13.647Z,17.08
2018-08-14T01:45:13.610Z,17.14
2018-08-14T01:46:13.602Z,17.11
2018-08-14T01:47:13.594Z,17.06
2018-08-14T01:48:13.579Z,17.11
2018-08-14T01:49:13.571Z,17.03
2018-08-14T01:50:13.574Z,17.08
2018-08-14T01:51:13.546Z,17.08
2018-08-14T01:52:13.536Z,17.12
2018-08-14T01:53:13.543Z,17.06
2018-08-14T01:54:13.513Z,17.06
2018-08-14T01:55:13.520Z,17.15
2018-08-14T01:56:13.492Z,16.96
2018-08-14T01:57:13.488Z,16.97
2018-08-14T01:58:13.472Z,17.03
2018-08-14T01:59:13.461Z,16.96
2018-08-14T02:00:13.473Z,16.94
2018-08-14T02:01:13.440Z,16.93
2018-08-14T02:02:13.432Z,16.89
2018-08-14T02:03:13.421Z,16.96
2018-08-14T02:04:13.412Z,16.91
2018-08-14T02:05:13.400Z,16.93
2018-08-14T02:06:13.428Z,16.93
2018-08-14T02:07:13.377Z,16.94
2018-08-14T02:08:13.366Z,16.94
2018-08-14T02:09:13.359Z,16.91
2018-08-14T02:10:13.351Z,16.89
2018-08-14T02:11:13.333Z,16.91
2018-08-14T02:12:13.340Z,16.89
2018-08-14T02:13:13.315Z,16.91
2018-08-14T02:14:13.303Z,16.91
2018-08-14T02:15:13.293Z,16.94
2018-08-14T02:16:13.301Z,16.83
2018-08-14T02:17:13.273Z,16.88
2018-08-14T02:18:13.264Z,16.86
2018-08-14T02:19:13.249Z,16.83
2018-08-14T02:20:13.241Z,16.81
2018-08-14T02:21:13.231Z,16.79
2018-08-14T02:22:13.234Z,16.73
2018-08-14T02:23:13.206Z,16.75
2018-08-14T02:24:13.200Z,16.76
2018-08-14T02:25:13.186Z,16.71
2018-08-14T02:26:13.192Z,16.66
2018-08-14T02:27:13.182Z,16.70
2018-08-14T02:28:13.160Z,16.64
2018-08-14T02:29:13.143Z,16.67
2018-08-14T02:30:13.137Z,16.66
2018-08-14T02:31:13.126Z,16.66
2018-08-14T02:32:13.135Z,16.60
2018-08-14T02:33:13.100Z,16.71
2018-08-14T02:34:13.092Z,16.70
2018-08-14T02:35:13.079Z,16.70
2018-08-14T02:36:13.069Z,16.63
2018-08-14T02:37:13.056Z,16.60
2018-08-14T02:38:13.060Z,16.67
2018-08-14T02:39:13.042Z,16.63
2018-08-14T02:40:13.026Z,16.67
2018-08-14T02:41:13.013Z,16.60
2018-08-14T02:42:13.004Z,16.60
2018-08-14T02:43:13.017Z,16.60
2018-08-14T02:44:12.988Z,16.58
2018-08-14T02:45:12.975Z,16.52
2018-08-14T02:46:12.960Z,16.58
2018-08-14T02:47:12.949Z,16.53
2018-08-14T02:48:12.941Z,16.56
2018-08-14T02:49:12.943Z,16.56
2018-08-14T02:50:12.940Z,16.58
2018-08-14T02:51:12.909Z,16.52
2018-08-14T02:52:12.898Z,16.49
2018-08-14T02:53:12.885Z,16.60
2018-08-14T02:54:12.875Z,16.57
2018-08-14T02:55:12.866Z,16.57
2018-08-14T02:56:12.867Z,16.60
2018-08-14T02:57:12.840Z,16.57
2018-08-14T02:58:12.833Z,16.60
2018-08-14T02:59:12.837Z,16.63
2018-08-14T03:00:12.817Z,16.60
2018-08-14T03:01:12.801Z,16.61
2018-08-14T03:02:12.811Z,16.60
2018-08-14T03:03:12.776Z,16.63
2018-08-14T03:04:12.768Z,16.64
2018-08-14T03:05:12.757Z,16.63
2018-08-14T03:06:12.745Z,16.66
2018-08-14T03:07:12.735Z,16.67
2018-08-14T03:08:12.737Z,16.61
2018-08-14T03:09:12.716Z,16.58
2018-08-14T03:10:12.704Z,16.67
2018-08-14T03:11:12.688Z,16.71
2018-08-14T03:12:12.679Z,16.70
2018-08-14T03:13:12.709Z,16.71
2018-08-14T03:14:12.660Z,16.67
2018-08-14T03:15:12.648Z,16.63
2018-08-14T03:16:12.636Z,16.70
2018-08-14T03:17:12.625Z,16.66
2018-08-14T03:18:12.614Z,16.64
2018-08-14T03:19:12.620Z,16.70
2018-08-14T03:20:12.613Z,16.63
2018-08-14T03:21:12.581Z,16.63
2018-08-14T03:22:12.569Z,16.67
2018-08-14T03:23:12.562Z,16.71
2018-08-14T03:24:12.549Z,16.64
2018-08-14T03:25:12.540Z,16.68
2018-08-14T03:26:12.543Z,16.85
2018-08-14T03:27:12.516Z,16.81
2018-08-14T03:28:12.511Z,16.78
2018-08-14T03:29:12.498Z,16.76
2018-08-14T03:30:12.486Z,16.79
2018-08-14T03:31:12.491Z,16.75
2018-08-14T03:32:12.476Z,16.76
2018-08-14T03:33:12.450Z,16.79
2018-08-14T03:34:12.439Z,16.81
2018-08-14T03:35:12.432Z,16.79
2018-08-14T03:36:12.418Z,16.79
2018-08-14T03:37:12.421Z,16.82
2018-08-14T03:38:12.396Z,16.81
2018-08-14T03:39:12.385Z,16.88
2018-08-14T03:40:12.392Z,16.86
2018-08-14T03:41:12.364Z,16.91
2018-08-14T03:42:12.354Z,16.86
2018-08-14T03:43:12.345Z,16.88
2018-08-14T03:44:12.348Z,16.91
2018-08-14T03:45:12.320Z,16.88
2018-08-14T03:46:12.322Z,16.88
2018-08-14T03:47:12.300Z,16.89
2018-08-14T03:48:12.291Z,16.85
2018-08-14T03:49:12.280Z,16.83
2018-08-14T03:50:12.270Z,16.88
2018-08-14T03:51:12.269Z,16.83
2018-08-14T03:52:12.246Z,16.89
2018-08-14T03:53:12.240Z,16.89
2018-08-14T03:54:12.224Z,16.85
2018-08-14T03:55:12.218Z,16.93
2018-08-14T03:56:12.219Z,16.94
2018-08-14T03:57:12.197Z,16.94
2018-08-14T03:58:12.182Z,16.97
2018-08-14T03:59:12.169Z,16.96
2018-08-14T04:00:12.162Z,17.00
2018-08-14T04:01:12.164Z,16.96
2018-08-14T04:02:12.156Z,17.00
2018-08-14T04:03:12.130Z,16.96
2018-08-14T04:04:12.139Z,17.00
2018-08-14T04:05:12.110Z,16.94
2018-08-14T04:06:12.135Z,16.94
2018-08-14T04:07:12.086Z,17.00
2018-08-14T04:08:12.078Z,16.97
2018-08-14T04:09:12.067Z,17.03
2018-08-14T04:10:12.065Z,17.08
2018-08-14T04:11:12.046Z,17.12
2018-08-14T04:12:12.035Z,17.08
2018-08-14T04:13:12.042Z,17.06
2018-08-14T04:14:12.012Z,17.08
2018-08-14T04:15:12.001Z,17.06
2018-08-14T04:16:11.992Z,17.06
2018-08-14T04:17:11.980Z,17.15
2018-08-14T04:18:11.970Z,17.06
2018-08-14T04:19:11.973Z,17.11
2018-08-14T04:20:11.948Z,17.15
2018-08-14T04:21:11.940Z,17.08
2018-08-14T04:22:11.926Z,17.15
2018-08-14T04:23:11.915Z,17.08
2018-08-14T04:24:11.915Z,17.08
2018-08-14T04:25:11.905Z,17.04
2018-08-14T04:26:11.886Z,17.12
2018-08-14T04:27:11.875Z,17.14
2018-08-14T04:28:11.865Z,17.03
2018-08-14T04:29:11.867Z,17.08
2018-08-14T04:30:11.843Z,17.12
2018-08-14T04:31:11.845Z,17.12
2018-08-14T04:32:11.820Z,17.18
2018-08-14T04:33:11.812Z,17.22
2018-08-14T04:34:11.838Z,17.15
2018-08-14T04:35:11.790Z,17.15
2018-08-14T04:36:11.782Z,17.18
2018-08-14T04:37:11.771Z,17.21
2018-08-14T04:38:11.757Z,17.18
2018-08-14T04:39:11.750Z,17.19
2018-08-14T04:40:11.753Z,17.14
2018-08-14T04:41:11.724Z,17.19
2018-08-14T04:42:11.716Z,17.22
2018-08-14T04:43:11.705Z,17.23
2018-08-14T04:44:11.692Z,17.25
2018-08-14T04:45:11.703Z,17.21
2018-08-14T04:46:11.671Z,17.22
2018-08-14T04:47:11.659Z,17.25
2018-08-14T04:48:11.651Z,17.30
2018-08-14T04:49:11.639Z,17.26
2018-08-14T04:50:11.633Z,17.21
2018-08-14T04:51:11.631Z,17.21
2018-08-14T04:52:11.627Z,17.16
2018-08-14T04:53:11.600Z,17.26
2018-08-14T04:54:11.588Z,17.26
2018-08-14T04:55:11.574Z,17.33
2018-08-14T04:56:11.572Z,17.31
2018-08-14T04:57:11.555Z,17.23
2018-08-14T04:58:11.553Z,17.25
2018-08-14T04:59:11.536Z,17.12
2018-08-14T05:00:11.521Z,17.04
2018-08-14T05:01:11.513Z,17.08
2018-08-14T05:02:11.511Z,17.11
2018-08-14T05:03:11.547Z,17.08
2018-08-14T05:04:11.482Z,17.07
2018-08-14T05:05:11.469Z,17.00
2018-08-14T05:06:11.457Z,17.01
2018-08-14T05:07:11.448Z,16.98
2018-08-14T05:08:11.472Z,16.97
2018-08-14T05:09:11.424Z,16.89
2018-08-14T05:10:11.456Z,16.96
2018-08-14T05:11:11.438Z,16.89
2018-08-14T05:12:11.434Z,16.82
2018-08-14T05:13:11.413Z,16.82
2018-08-14T05:14:11.468Z,16.75
2018-08-14T05:15:11.380Z,16.81
2018-08-14T05:16:11.356Z,16.79
2018-08-14T05:17:11.336Z,16.73
2018-08-14T05:18:11.332Z,16.75
2018-08-14T05:19:11.346Z,16.76
2018-08-14T05:20:11.359Z,16.79
2018-08-14T05:21:11.303Z,16.75
2018-08-14T05:22:11.281Z,16.79
2018-08-14T05:23:11.280Z,16.71
2018-08-14T05:24:11.272Z,16.75
2018-08-14T05:25:11.263Z,16.75
2018-08-14T05:26:11.243Z,16.73
2018-08-14T05:27:11.231Z,16.73
2018-08-14T05:28:11.219Z,16.76
2018-08-14T05:29:11.230Z,16.73
2018-08-14T05:30:11.198Z,16.83
2018-08-14T05:31:11.185Z,16.83
2018-08-14T05:32:11.174Z,16.86
2018-08-14T05:33:11.166Z,16.91
2018-08-14T05:34:11.153Z,16.93
2018-08-14T05:35:11.157Z,16.82
2018-08-14T05:36:11.132Z,16.88
2018-08-14T05:37:11.124Z,16.89
2018-08-14T05:38:11.110Z,16.93
2018-08-14T05:39:11.100Z,16.89
2018-08-14T05:40:11.122Z,16.97
2018-08-14T05:41:11.075Z,16.94
2018-08-14T05:42:11.065Z,16.94
2018-08-14T05:43:11.059Z,16.97
2018-08-14T05:44:11.040Z,17.06
2018-08-14T05:45:11.035Z,17.00
2018-08-14T05:46:11.040Z,16.96
2018-08-14T05:47:11.011Z,17.00
2018-08-14T05:48:11.001Z,17.00
2018-08-14T05:49:10.989Z,16.96
2018-08-14T05:50:11.002Z,16.91
2018-08-14T05:51:10.973Z,16.88
2018-08-14T05:52:10.955Z,16.96
2018-08-14T05:53:10.963Z,16.96
2018-08-14T05:54:10.935Z,16.98
2018-08-14T05:55:10.927Z,17.00
2018-08-14T05:56:10.916Z,16.96
2018-08-14T05:57:10.904Z,16.98
2018-08-14T05:58:10.912Z,17.01
2018-08-14T05:59:10.885Z,16.96
2018-08-14T06:00:10.875Z,16.97
2018-08-14T06:01:10.863Z,16.96
2018-08-14T06:02:10.872Z,17.00
2018-08-14T06:03:10.839Z,16.94
2018-08-14T06:04:10.828Z,16.97
2018-08-14T06:05:10.820Z,17.03
2018-08-14T06:06:10.810Z,17.00
2018-08-14T06:07:10.799Z,17.04
2018-08-14T06:08:10.797Z,17.07
2018-08-14T06:09:10.773Z,17.04
2018-08-14T06:10:10.788Z,17.03
2018-08-14T06:11:10.753Z,16.94
2018-08-14T06:12:10.743Z,17.00
2018-08-14T06:13:10.744Z,17.00
2018-08-14T06:14:10.720Z,17.01
2018-08-14T06:15:10.712Z,17.04
2018-08-14T06:16:10.700Z,17.03
2018-08-14T06:17:10.690Z,16.97
2018-08-14T06:18:10.690Z,17.07
2018-08-14T06:19:10.666Z,17.01
2018-08-14T06:20:10.658Z,17.03
2018-08-14T06:21:10.644Z,17.00
2018-08-14T06:22:10.637Z,17.03
2018-08-14T06:23:10.667Z,16.98
2018-08-14T06:24:10.615Z,16.98
2018-08-14T06:25:10.682Z,17.06
2018-08-14T06:26:10.605Z,17.08
2018-08-14T06:27:10.585Z,17.12
2018-08-14T06:28:10.573Z,17.08
2018-08-14T06:29:10.582Z,16.93
2018-08-14T06:30:10.553Z,17.01
2018-08-14T06:31:10.541Z,16.93
2018-08-14T06:32:10.528Z,17.00
2018-08-14T06:33:10.523Z,17.08
2018-08-14T06:34:10.531Z,17.04
2018-08-14T06:35:10.597Z,17.08
2018-08-14T06:36:10.504Z,17.11
2018-08-14T06:37:10.477Z,17.11
2018-08-14T06:38:10.467Z,17.06
2018-08-14T06:39:10.456Z,17.11
2018-08-14T06:40:10.447Z,17.11
2018-08-14T06:41:10.501Z,17.11
2018-08-14T06:42:10.425Z,17.12
2018-08-14T06:43:10.414Z,17.14
2018-08-14T06:44:10.401Z,17.08
2018-08-14T06:45:10.409Z,17.11
2018-08-14T06:46:10.382Z,17.08
2018-08-14T06:47:10.372Z,17.06
2018-08-14T06:48:10.359Z,17.08
2018-08-14T06:49:10.349Z,17.07
2018-08-14T06:50:10.341Z,17.06
2018-08-14T06:51:10.361Z,17.06
2018-08-14T06:52:10.321Z,17.08
2018-08-14T06:53:10.306Z,17.08
2018-08-14T06:54:10.292Z,17.14
2018-08-14T06:55:10.286Z,17.07
2018-08-14T06:56:10.274Z,17.08
2018-08-14T06:57:10.276Z,17.15
2018-08-14T06:58:10.256Z,17.16
2018-08-14T06:59:10.256Z,17.06
2018-08-14T07:00:10.229Z,17.16
2018-08-14T07:01:10.233Z,17.19
2018-08-14T07:02:10.225Z,17.25
2018-08-14T07:03:10.216Z,17.22
2018-08-14T07:04:10.187Z,17.16
2018-08-14T07:05:10.174Z,17.21
2018-08-14T07:06:10.164Z,17.21
2018-08-14T07:07:10.153Z,17.18
2018-08-14T07:08:10.148Z,17.22
2018-08-14T07:09:10.148Z,17.26
2018-08-14T07:10:10.123Z,17.18
2018-08-14T07:11:10.109Z,17.25
2018-08-14T07:12:10.120Z,17.25
2018-08-14T07:13:10.090Z,17.25
2018-08-14T07:14:10.081Z,17.30
2018-08-14T07:15:10.070Z,17.25
2018-08-14T07:16:10.058Z,17.19
2018-08-14T07:17:10.055Z,17.22
2018-08-14T07:18:10.048Z,17.38
2018-08-14T07:19:10.024Z,17.34
2018-08-14T07:20:10.013Z,17.30
2018-08-14T07:21:09.998Z,17.26
2018-08-14T07:22:09.988Z,17.30
2018-08-14T07:23:09.989Z,17.38
2018-08-14T07:24:09.977Z,17.33
2018-08-14T07:25:09.958Z,17.38
2018-08-14T07:26:09.946Z,17.36
2018-08-14T07:27:09.930Z,17.28
2018-08-14T07:28:09.919Z,17.36
2018-08-14T07:29:09.925Z,17.37
2018-08-14T07:30:09.896Z,17.40
2018-08-14T07:31:09.884Z,17.49
2018-08-14T07:32:09.873Z,17.56
2018-08-14T07:33:09.877Z,17.64
2018-08-14T07:34:09.854Z,17.59
2018-08-14T07:35:09.844Z,17.70
2018-08-14T07:36:09.836Z,17.71
2018-08-14T07:37:09.818Z,17.90
2018-08-14T07:38:09.825Z,17.96
2018-08-14T07:39:09.795Z,18.02
2018-08-14T07:40:09.789Z,18.07
2018-08-14T07:41:09.774Z,18.20
2018-08-14T07:42:09.786Z,18.20
2018-08-14T07:43:09.753Z,18.25
2018-08-14T07:44:09.743Z,18.23
2018-08-14T07:45:09.738Z,18.21
2018-08-14T07:46:09.720Z,18.27
2018-08-14T07:47:09.727Z,18.21
2018-08-14T07:48:09.700Z,18.18
2018-08-14T07:49:09.691Z,18.20
2018-08-14T07:50:09.743Z,18.30
2018-08-14T07:51:09.669Z,18.23
2018-08-14T07:52:09.655Z,18.21
2018-08-14T07:53:09.727Z,18.18
2018-08-14T07:54:09.654Z,18.21
2018-08-14T07:55:09.622Z,18.23
2018-08-14T07:56:09.627Z,18.21
2018-08-14T07:57:09.603Z,18.15
2018-08-14T07:58:09.590Z,18.18
2018-08-14T07:59:09.578Z,18.10
2018-08-14T08:00:09.568Z,18.08
2018-08-14T08:01:09.575Z,18.07
2018-08-14T08:02:09.570Z,18.08
2018-08-14T08:03:09.535Z,18.08
2018-08-14T08:04:09.527Z,17.99
2018-08-14T08:05:09.517Z,17.97
2018-08-14T08:06:09.523Z,17.92
2018-08-14T08:07:09.495Z,17.95
2018-08-14T08:08:09.496Z,17.93
2018-08-14T08:09:09.469Z,17.93
2018-08-14T08:10:09.458Z,17.93
2018-08-14T08:11:09.452Z,17.82
2018-08-14T08:12:09.517Z,17.92
2018-08-14T08:13:09.454Z,17.82
2018-08-14T08:14:09.412Z,17.81
2018-08-14T08:15:09.402Z,17.82
2018-08-14T08:16:09.392Z,17.90
2018-08-14T08:17:09.380Z,17.96
2018-08-14T08:18:09.371Z,17.92
2018-08-14T08:19:09.370Z,18.02
2018-08-14T08:20:09.351Z,18.02
2018-08-14T08:21:09.334Z,18.05
2018-08-14T08:22:09.324Z,18.08
2018-08-14T08:23:09.328Z,18.17
2018-08-14T08:24:09.314Z,18.23
2018-08-14T08:25:09.292Z,18.25
2018-08-14T08:26:09.282Z,18.30
2018-08-14T08:27:09.272Z,18.32
2018-08-14T08:28:09.262Z,18.44
2018-08-14T08:29:09.276Z,18.50
2018-08-14T08:30:09.238Z,18.48
2018-08-14T08:31:09.228Z,18.41
2018-08-14T08:32:09.218Z,18.48
2018-08-14T08:33:09.207Z,18.45
2018-08-14T08:34:09.242Z,18.45
2018-08-14T08:35:09.198Z,18.50
2018-08-14T08:36:09.171Z,18.44
2018-08-14T08:37:09.163Z,18.51
2018-08-14T08:38:09.150Z,18.48
2018-08-14T08:39:09.142Z,18.45
2018-08-14T08:40:09.142Z,18.27
2018-08-14T08:41:09.124Z,18.30
2018-08-14T08:42:09.160Z,18.37
2018-08-14T08:43:09.096Z,18.25
2018-08-14T08:44:09.083Z,18.20
2018-08-14T08:45:09.088Z,18.07
2018-08-14T08:46:09.078Z,18.02
2018-08-14T08:47:09.052Z,17.92
2018-08-14T08:48:09.040Z,17.95
2018-08-14T08:49:09.033Z,17.81
2018-08-14T08:50:09.032Z,17.89
2018-08-14T08:51:09.047Z,17.86
2018-08-14T08:52:09.009Z,17.79
2018-08-14T08:53:08.985Z,17.77
2018-08-14T08:54:08.972Z,17.77
2018-08-14T08:55:08.960Z,17.79
2018-08-14T08:56:08.952Z,17.78
2018-08-14T08:57:08.973Z,17.82
2018-08-14T08:58:09.039Z,17.79
2018-08-14T08:59:08.914Z,17.81
2018-08-14T09:00:08.904Z,17.95
2018-08-14T09:01:08.895Z,17.97
2018-08-14T09:02:08.881Z,17.99
2018-08-14T09:03:08.908Z,18.14
2018-08-14T09:04:08.861Z,18.14
2018-08-14T09:05:08.852Z,18.25
2018-08-14T09:06:08.840Z,18.21
2018-08-14T09:07:08.827Z,18.25
2018-08-14T09:08:08.819Z,18.25
2018-08-14T09:09:08.818Z,18.26
2018-08-14T09:10:08.794Z,18.37
2018-08-14T09:11:08.784Z,18.29
2018-08-14T09:12:08.773Z,18.32
2018-08-14T09:13:08.784Z,18.33
2018-08-14T09:14:08.754Z,18.30
2018-08-14T09:15:08.741Z,18.30
2018-08-14T09:16:08.733Z,18.27
2018-08-14T09:17:08.721Z,18.21
2018-08-14T09:18:08.755Z,18.18
2018-08-14T09:19:08.712Z,18.12
2018-08-14T09:20:08.688Z,18.10
2018-08-14T09:21:08.679Z,18.07
2018-08-14T09:22:08.665Z,17.99
2018-08-14T09:23:08.681Z,18.02
2018-08-14T09:24:08.645Z,17.96
2018-08-14T09:25:08.632Z,18.00
2018-08-14T09:26:08.623Z,17.97
2018-08-14T09:27:08.610Z,18.07
2018-08-14T09:28:08.620Z,17.93
2018-08-14T09:29:08.590Z,17.96
2018-08-14T09:30:08.588Z,18.03
2018-08-14T09:31:08.568Z,18.03
2018-08-14T09:32:08.556Z,18.02
2018-08-14T09:33:08.548Z,18.05
2018-08-14T09:34:08.546Z,18.12
2018-08-14T09:35:08.524Z,18.18
2018-08-14T09:36:08.513Z,18.21
2018-08-14T09:37:08.502Z,18.23
2018-08-14T09:38:08.493Z,18.21
2018-08-14T09:39:08.491Z,18.32
2018-08-14T09:40:08.468Z,18.36
2018-08-14T09:41:08.461Z,18.52
2018-08-14T09:42:08.466Z,18.60
2018-08-14T09:43:08.438Z,18.62
2018-08-14T09:44:08.427Z,18.63
2018-08-14T09:45:08.416Z,18.69
2018-08-14T09:46:08.428Z,18.66
2018-08-14T09:47:08.393Z,18.75
2018-08-14T09:48:08.383Z,18.67
2018-08-14T09:49:08.372Z,18.81
2018-08-14T09:50:08.360Z,18.82
2018-08-14T09:51:08.350Z,18.82
2018-08-14T09:52:08.353Z,19.00
2018-08-14T09:53:08.326Z,18.95
2018-08-14T09:54:08.317Z,18.92
2018-08-14T09:55:08.307Z,18.98
2018-08-14T09:56:08.296Z,19.08
2018-08-14T09:57:08.303Z,19.16
2018-08-14T09:58:08.270Z,19.25
2018-08-14T09:59:08.260Z,19.31
2018-08-14T10:00:08.252Z,19.55
2018-08-14T10:01:08.241Z,19.61
2018-08-14T10:02:08.227Z,19.84
2018-08-14T10:03:08.233Z,20.01
2018-08-14T10:04:08.231Z,19.99
2018-08-14T10:05:08.195Z,20.32
2018-08-14T10:06:08.191Z,20.43
2018-08-14T10:07:08.176Z,20.57
2018-08-14T10:08:08.164Z,20.70
2018-08-14T10:09:08.150Z,20.72
2018-08-14T10:10:08.149Z,20.79
2018-08-14T10:11:08.130Z,20.91
2018-08-14T10:12:08.131Z,20.99
2018-08-14T10:13:08.116Z,21.17
2018-08-14T10:14:08.111Z,21.35
2018-08-14T10:15:08.115Z,21.42
2018-08-14T10:16:08.077Z,21.47
2018-08-14T10:17:08.064Z,21.46
2018-08-14T10:18:08.053Z,21.34
2018-08-14T10:19:08.059Z,21.16
2018-08-14T10:20:08.036Z,20.84
2018-08-14T10:21:08.024Z,20.57
2018-08-14T10:22:08.013Z,20.42
2018-08-14T10:23:08.001Z,20.31
2018-08-14T10:24:08.005Z,20.23
2018-08-14T10:25:08.017Z,20.23
2018-08-14T10:26:07.966Z,20.35
2018-08-14T10:27:07.954Z,20.39
2018-08-14T10:28:07.943Z,20.48
2018-08-14T10:29:07.931Z,20.48
2018-08-14T10:30:07.920Z,20.43
2018-08-14T10:31:07.927Z,20.41
2018-08-14T10:32:07.901Z,20.57
2018-08-14T10:33:07.890Z,20.66
2018-08-14T10:34:07.876Z,20.73
2018-08-14T10:35:07.867Z,21.04
2018-08-14T10:36:07.855Z,21.24
2018-08-14T10:37:07.855Z,21.42
2018-08-14T10:38:07.833Z,21.69
2018-08-14T10:39:07.828Z,21.82
2018-08-14T10:40:07.873Z,21.96
2018-08-14T10:41:07.847Z,22.07
2018-08-14T10:42:07.791Z,22.18
2018-08-14T10:43:07.781Z,22.36
2018-08-14T10:44:07.771Z,22.47
2018-08-14T10:45:07.758Z,22.62
2018-08-14T10:46:07.770Z,22.62
2018-08-14T10:47:07.749Z,22.65
2018-08-14T10:48:07.726Z,22.76
2018-08-14T10:49:07.715Z,22.75
2018-08-14T10:50:07.704Z,22.85
2018-08-14T10:51:07.706Z,23.09
2018-08-14T10:52:07.709Z,23.09
2018-08-14T10:53:07.676Z,23.04
2018-08-14T10:54:07.665Z,23.07
2018-08-14T10:55:07.651Z,23.28
2018-08-14T10:56:07.641Z,23.23
2018-08-14T10:57:07.633Z,23.25
2018-08-14T10:58:07.709Z,23.02
2018-08-14T10:59:07.612Z,22.92
2018-08-14T11:00:07.599Z,22.64
2018-08-14T11:01:07.591Z,22.62
2018-08-14T11:02:07.577Z,22.31
2018-08-14T11:03:07.580Z,22.17
2018-08-14T11:04:07.558Z,21.92
2018-08-14T11:05:07.545Z,21.77
2018-08-14T11:06:07.539Z,21.59
2018-08-14T11:07:07.540Z,21.47
2018-08-14T11:08:07.513Z,21.35
2018-08-14T11:09:07.504Z,21.22
2018-08-14T11:10:07.507Z,21.07
2018-08-14T11:11:07.480Z,20.97
2018-08-14T11:12:07.468Z,20.87
2018-08-14T11:13:07.458Z,20.72
2018-08-14T11:14:07.466Z,20.57
2018-08-14T11:15:07.440Z,20.58
2018-08-14T11:16:07.444Z,20.47
2018-08-14T11:17:07.415Z,20.29
2018-08-14T11:18:07.402Z,20.23
2018-08-14T11:19:07.436Z,20.20
2018-08-14T11:20:07.384Z,20.17
2018-08-14T11:21:07.368Z,20.10
2018-08-14T11:22:07.362Z,20.06
2018-08-14T11:23:07.350Z,20.03
2018-08-14T11:24:07.339Z,20.02
2018-08-14T11:25:07.344Z,20.01
2018-08-14T11:26:07.317Z,20.02
2018-08-14T11:27:07.307Z,20.05
2018-08-14T11:28:07.293Z,20.06
2018-08-14T11:29:07.300Z,20.05
2018-08-14T11:30:07.274Z,20.05
2018-08-14T11:31:07.273Z,20.14
2018-08-14T11:32:07.253Z,20.01
2018-08-14T11:33:07.241Z,20.02
2018-08-14T11:34:07.228Z,19.99
2018-08-14T11:35:07.241Z,20.03
2018-08-14T11:36:07.209Z,20.08
2018-08-14T11:37:07.198Z,19.91
2018-08-14T11:38:07.183Z,19.81
2018-08-14T11:39:07.181Z,19.65
2018-08-14T11:40:07.164Z,19.58
2018-08-14T11:41:07.171Z,19.36
2018-08-14T11:42:07.141Z,19.28
2018-08-14T11:43:07.130Z,19.10
2018-08-14T11:44:07.119Z,19.00
2018-08-14T11:45:07.137Z,18.90
2018-08-14T11:46:07.101Z,18.84
2018-08-14T11:47:07.104Z,18.75
2018-08-14T11:48:07.118Z,18.69
2018-08-14T11:49:07.070Z,18.80
2018-08-14T11:50:07.056Z,18.69
2018-08-14T11:51:07.046Z,18.75
2018-08-14T11:52:07.036Z,18.70
2018-08-14T11:53:07.021Z,18.76
2018-08-14T11:54:07.025Z,18.76
2018-08-14T11:55:07.005Z,18.80
2018-08-14T11:56:07.011Z,18.90
2018-08-14T11:57:06.981Z,18.88
2018-08-14T11:58:06.968Z,18.91
2018-08-14T11:59:06.959Z,19.04
2018-08-14T12:00:06.948Z,19.02
2018-08-14T12:01:06.952Z,19.19
2018-08-14T12:02:06.973Z,19.31
2018-08-14T12:03:06.912Z,19.32
2018-08-14T12:04:06.927Z,19.47
2018-08-14T12:05:06.897Z,19.47
2018-08-14T12:06:06.880Z,19.43
2018-08-14T12:07:06.896Z,19.54
2018-08-14T12:08:06.857Z,19.58
2018-08-14T12:09:06.851Z,19.59
2018-08-14T12:10:06.869Z,19.54
2018-08-14T12:11:06.866Z,19.44
2018-08-14T12:12:06.818Z,19.50
2018-08-14T12:13:06.808Z,19.36
2018-08-14T12:14:06.793Z,19.39
2018-08-14T12:15:06.783Z,19.33
2018-08-14T12:16:06.788Z,19.22
2018-08-14T12:17:06.762Z,19.22
2018-08-14T12:18:06.768Z,19.10
2018-08-14T12:19:06.741Z,18.98
2018-08-14T12:20:06.728Z,18.94
2018-08-14T12:21:06.717Z,18.84
2018-08-14T12:22:06.705Z,18.82
2018-08-14T12:23:06.715Z,18.87
2018-08-14T12:24:06.687Z,18.81
2018-08-14T12:25:06.675Z,18.76
2018-08-14T12:26:06.665Z,18.76
2018-08-14T12:27:06.655Z,18.66
2018-08-14T12:28:06.641Z,18.73
2018-08-14T12:29:06.652Z,18.63
2018-08-14T12:30:06.624Z,18.69
2018-08-14T12:31:06.608Z,18.75
2018-08-14T12:32:06.600Z,18.67
2018-08-14T12:33:06.593Z,18.73
2018-08-14T12:34:06.578Z,18.78
2018-08-14T12:35:06.609Z,18.78
2018-08-14T12:36:06.557Z,18.84
2018-08-14T12:37:06.547Z,18.81
2018-08-14T12:38:06.536Z,18.90
2018-08-14T12:39:06.525Z,18.87
2018-08-14T12:40:06.511Z,18.95
2018-08-14T12:41:06.521Z,18.95
2018-08-14T12:42:06.496Z,19.07
2018-08-14T12:43:06.481Z,19.13
2018-08-14T12:44:06.494Z,19.22
2018-08-14T12:45:06.457Z,19.25
2018-08-14T12:46:06.471Z,19.36
2018-08-14T12:47:06.435Z,19.44
2018-08-14T12:48:06.424Z,19.58
2018-08-14T12:49:06.416Z,19.51
2018-08-14T12:50:06.402Z,19.62
2018-08-14T12:51:06.393Z,19.59
2018-08-14T12:52:06.395Z,19.68